Time;durP1;ratioP1;P1;durP2;ratioP2;P2;SDS_P1;SDS_P2;PMS_P1;PMS_P2;Temp;Humidity;BMP_temperature;BMP_pressure;BME280_temperature;BME280_humidity;BME280_pressure;Samples;Min_cycle;Max_cycle;Signal;HPM_P1;HPM_P2
2022/12/29 00:01:49;;;;;;;6.18;3.00;;;9.70;99.90;;;;;;5043901;28;20454;-69
2022/12/29 00:04:15;;;;;;;5.43;3.00;;;9.80;99.90;;;;;;5029232;28;20038;-71
2022/12/29 00:06:42;;;;;;;4.25;2.65;;;9.80;99.90;;;;;;5022685;28;20029;-69
2022/12/29 00:09:10;;;;;;;5.30;2.85;;;9.90;99.90;;;;;;5011360;27;20058;-69
2022/12/29 00:11:35;;;;;;;5.07;2.88;;;9.90;99.90;;;;;;5009233;28;20041;-70
2022/12/29 00:16:48;;;;;;;6.68;3.10;;;10.00;99.90;;;;;;5023409;28;20058;-69
2022/12/29 00:36:06;;;;;;;4.50;2.90;;;10.00;99.90;;;;;;5015680;28;20042;-69
2022/12/29 00:44:07;;;;;;;6.40;2.95;;;10.00;99.90;;;;;;5028729;28;20612;-69
2022/12/29 00:46:37;;;;;;;5.38;2.85;;;10.00;99.90;;;;;;5014163;28;20113;-69
2022/12/29 00:51:49;;;;;;;5.28;2.50;;;10.10;99.90;;;;;;5028263;28;20049;-69
2022/12/29 00:54:15;;;;;;;6.53;3.20;;;10.00;99.90;;;;;;5018212;28;20113;-69
2022/12/29 00:56:41;;;;;;;4.75;2.55;;;10.10;99.90;;;;;;5015591;28;20045;-69
2022/12/29 00:59:09;;;;;;;3.25;2.20;;;10.10;99.90;;;;;;5028311;28;20057;-69
2022/12/29 01:01:36;;;;;;;4.82;2.97;;;10.10;99.90;;;;;;5027006;28;20041;-69
2022/12/29 01:04:02;;;;;;;4.53;2.33;;;10.10;99.90;;;;;;5028307;28;20114;-69
2022/12/29 01:06:27;;;;;;;6.25;2.33;;;10.10;99.90;;;;;;5027380;28;20454;-69
2022/12/29 01:11:40;;;;;;;4.47;3.05;;;10.20;99.90;;;;;;5012136;28;20079;-70
2022/12/29 01:14:06;;;;;;;3.20;2.13;;;10.20;99.90;;;;;;5008536;28;20038;-69
2022/12/29 01:16:32;;;;;;;;;;;10.30;99.90;;;;;;5007549;28;20095;-70
2022/12/29 01:18:58;;;;;;;3.22;2.00;;;10.30;99.90;;;;;;5010067;28;20308;-70
2022/12/29 01:21:24;;;;;;;5.13;2.47;;;10.40;99.90;;;;;;5008093;28;20077;-69
2022/12/29 01:23:49;;;;;;;4.78;2.20;;;10.40;99.90;;;;;;5007792;28;20048;-69
2022/12/29 01:26:16;;;;;;;4.75;2.22;;;10.40;99.90;;;;;;5016774;28;20390;-69
2022/12/29 01:28:42;;;;;;;5.25;2.28;;;10.40;99.90;;;;;;5017574;28;20054;-69
2022/12/29 01:31:13;;;;;;;5.20;2.30;;;10.50;99.90;;;;;;5016895;28;20516;-69
2022/12/29 01:33:39;;;;;;;3.92;1.90;;;10.50;99.90;;;;;;5027558;28;20049;-69
2022/12/29 01:36:07;;;;;;;3.92;2.20;;;10.40;99.90;;;;;;5027601;28;20727;-69
2022/12/29 01:38:34;;;;;;;3.90;2.05;;;10.50;99.90;;;;;;5027269;28;20046;-69
2022/12/29 01:41:00;;;;;;;3.00;1.88;;;10.50;99.90;;;;;;5017646;28;20054;-69
2022/12/29 01:43:50;;;;;;;4.07;1.77;;;10.50;99.90;;;;;;4989885;28;20033;-69
2022/12/29 01:46:25;;;;;;;4.63;1.95;;;10.50;99.90;;;;;;5006840;28;20422;-69
2022/12/29 01:48:58;;;;;;;4.15;2.08;;;10.60;99.90;;;;;;5007010;28;20046;-69
2022/12/29 01:51:25;;;;;;;5.38;1.92;;;10.60;99.90;;;;;;5007288;28;20566;-69
2022/12/29 01:53:54;;;;;;;3.55;2.00;;;10.60;99.90;;;;;;5021332;28;20037;-69
2022/12/29 01:56:21;;;;;;;5.68;2.28;;;10.60;99.90;;;;;;5027663;28;20045;-69
2022/12/29 01:58:50;;;;;;;5.70;2.38;;;10.60;99.90;;;;;;5023175;28;20048;-69
2022/12/29 02:01:19;;;;;;;4.15;2.00;;;10.60;99.90;;;;;;5006915;28;20050;-69
2022/12/29 02:03:45;;;;;;;4.05;2.05;;;10.60;99.90;;;;;;4991450;28;20124;-69
2022/12/29 02:06:13;;;;;;;4.00;2.08;;;10.60;99.90;;;;;;5007356;28;20593;-69
2022/12/29 02:08:40;;;;;;;2.85;1.50;;;10.60;99.90;;;;;;5006784;28;20494;-69
2022/12/29 02:11:07;;;;;;;2.90;1.85;;;10.60;99.90;;;;;;5009289;28;20085;-69
2022/12/29 02:13:33;;;;;;;2.88;1.80;;;10.70;99.90;;;;;;5017320;28;20042;-70
2022/12/29 02:16:36;;;;;;;3.20;1.77;;;10.60;99.90;;;;;;5024806;28;20041;-69
2022/12/29 02:19:35;;;;;;;3.08;1.63;;;10.60;99.90;;;;;;5008421;28;20046;-69
2022/12/29 02:22:04;;;;;;;2.97;1.73;;;10.60;99.90;;;;;;5026780;28;20053;-69
2022/12/29 02:24:43;;;;;;;3.80;1.80;;;10.60;99.90;;;;;;5022890;28;20540;-69
2022/12/29 02:27:27;;;;;;;4.20;1.77;;;10.60;99.90;;;;;;5017345;28;20079;-69
2022/12/29 02:30:07;;;;;;;2.45;1.60;;;10.60;99.90;;;;;;5009039;28;20057;-69
2022/12/29 02:32:35;;;;;;;2.67;1.70;;;10.60;99.90;;;;;;5006898;28;20050;-69
2022/12/29 02:35:19;;;;;;;1.65;1.33;;;10.60;99.90;;;;;;5013617;28;20038;-68
2022/12/29 02:38:08;;;;;;;6.18;1.73;;;10.60;99.90;;;;;;5011529;28;20475;-69
2022/12/29 02:40:43;;;;;;;6.50;2.38;;;10.60;99.90;;;;;;5007216;28;20428;-70
2022/12/29 02:43:47;;;;;;;2.85;1.85;;;10.50;99.90;;;;;;5006887;28;20050;-69
2022/12/29 02:46:40;;;;;;;2.72;1.60;;;10.40;99.90;;;;;;5015696;28;20091;-69
2022/12/29 02:49:24;;;;;;;2.90;1.45;;;10.30;99.90;;;;;;5017025;28;20092;-69
2022/12/29 02:52:28;;;;;;;2.90;1.85;;;10.20;99.90;;;;;;5006286;28;20041;-69
2022/12/29 02:54:54;;;;;;;2.33;1.52;;;10.20;99.90;;;;;;5009525;28;20061;-69
2022/12/29 02:57:20;;;;;;;3.83;1.80;;;10.10;99.90;;;;;;5021202;28;20040;-69
2022/12/29 02:59:56;;;;;;;2.47;1.60;;;10.10;99.90;;;;;;5006332;28;20054;-69
2022/12/29 03:02:40;;;;;;;2.97;1.60;;;10.10;99.90;;;;;;5009317;28;20049;-69
2022/12/29 03:05:29;;;;;;;4.47;1.60;;;10.00;99.90;;;;;;5028798;28;20045;-69
2022/12/29 03:08:22;;;;;;;3.15;1.95;;;9.90;99.90;;;;;;5031131;28;20049;-69
2022/12/29 03:11:01;;;;;;;4.00;1.88;;;9.90;99.90;;;;;;5029221;28;20068;-69
2022/12/29 03:16:39;;;;;;;3.03;1.83;;;9.90;99.90;;;;;;5037188;28;20105;-69
2022/12/29 03:19:14;;;;;;;2.63;1.90;;;9.90;99.90;;;;;;5011208;28;20037;-69
2022/12/29 03:22:26;;;;;;;4.25;2.15;;;9.90;99.90;;;;;;5009696;28;20174;-72
2022/12/29 03:24:59;;;;;;;3.65;1.95;;;9.90;99.90;;;;;;5025147;28;20126;-70
2022/12/29 03:27:30;;;;;;;4.07;1.95;;;9.90;99.90;;;;;;5022279;28;20060;-70
2022/12/29 03:30:00;;;;;;;3.13;1.60;;;9.80;99.90;;;;;;5029632;28;20090;-70
2022/12/29 03:32:32;;;;;;;2.38;1.58;;;9.80;99.90;;;;;;5013141;28;20131;-69
2022/12/29 03:34:59;;;;;;;2.38;1.52;;;9.80;99.90;;;;;;4992390;28;20478;-70
2022/12/29 03:37:35;;;;;;;2.13;1.60;;;9.90;99.90;;;;;;5012368;28;20061;-70
2022/12/29 03:40:02;;;;;;;2.25;1.50;;;9.90;99.90;;;;;;5029258;28;20239;-70
2022/12/29 03:42:30;;;;;;;3.00;1.50;;;10.00;99.90;;;;;;5029359;28;20037;-70
2022/12/29 03:44:56;;;;;;;2.40;1.60;;;10.10;99.90;;;;;;5016175;28;20041;-70
2022/12/29 03:47:23;;;;;;;;;;;10.10;99.90;;;;;;5009584;28;20574;-70
2022/12/29 03:49:49;;;;;;;2.85;1.42;;;10.00;99.90;;;;;;5009739;28;19928;-70
2022/12/29 03:52:15;;;;;;;;;;;10.00;99.90;;;;;;5013169;28;20052;-70
2022/12/29 03:54:41;;;;;;;3.42;1.60;;;10.00;99.90;;;;;;5027955;28;19996;-70
2022/12/29 03:57:06;;;;;;;2.88;1.77;;;10.00;99.90;;;;;;5042284;28;20038;-70
2022/12/29 03:59:32;;;;;;;5.28;1.60;;;10.00;99.90;;;;;;5009638;28;20050;-70
2022/12/29 04:01:58;;;;;;;3.05;1.30;;;10.00;99.90;;;;;;4997655;28;20053;-70
2022/12/29 04:04:23;;;;;;;1.95;1.20;;;10.00;99.90;;;;;;5021097;28;20038;-70
2022/12/29 04:06:49;;;;;;;1.42;1.02;;;10.00;99.90;;;;;;5024208;28;20037;-70
2022/12/29 04:09:15;;;;;;;4.57;1.77;;;10.10;99.90;;;;;;5021048;28;20049;-70
2022/12/29 04:11:40;;;;;;;2.60;1.10;;;10.10;99.90;;;;;;5008750;28;20046;-70
2022/12/29 04:14:06;;;;;;;4.82;1.42;;;10.10;99.90;;;;;;5008424;28;20057;-70
2022/12/29 04:16:35;;;;;;;3.17;1.42;;;10.10;99.90;;;;;;5008491;28;20053;-70
2022/12/29 04:19:01;;;;;;;3.05;1.08;;;10.10;99.90;;;;;;5008900;28;20092;-70
2022/12/29 04:21:27;;;;;;;4.55;1.10;;;10.10;99.90;;;;;;5026956;28;20037;-70
2022/12/29 04:23:53;;;;;;;3.42;1.30;;;10.10;99.90;;;;;;5028324;28;20041;-70
2022/12/29 04:26:19;;;;;;;5.45;1.42;;;10.10;99.90;;;;;;5013901;28;20048;-70
2022/12/29 04:28:44;;;;;;;1.35;0.88;;;10.10;99.90;;;;;;5017110;28;20037;-71
2022/12/29 04:31:10;;;;;;;1.48;0.90;;;10.20;99.90;;;;;;5010126;28;20042;-70
2022/12/29 04:33:36;;;;;;;;;;;10.20;99.90;;;;;;5015764;28;20092;-70
2022/12/29 04:36:02;;;;;;;3.65;0.90;;;10.20;99.90;;;;;;5018136;28;19917;-70
2022/12/29 04:38:28;;;;;;;3.90;1.10;;;10.20;99.90;;;;;;5009141;28;20098;-70
2022/12/29 04:40:53;;;;;;;4.20;1.30;;;10.20;99.90;;;;;;5008610;28;20050;-70
2022/12/29 04:43:19;;;;;;;2.13;1.13;;;10.20;99.90;;;;;;5013081;28;20467;-70
2022/12/29 04:45:49;;;;;;;3.70;1.00;;;10.10;99.90;;;;;;5007649;28;20438;-70
2022/12/29 04:48:14;;;;;;;3.47;1.67;;;10.10;99.90;;;;;;5008385;28;20048;-70
2022/12/29 04:50:41;;;;;;;5.10;1.15;;;10.10;99.90;;;;;;4992581;28;20038;-69
2022/12/29 04:53:06;;;;;;;5.88;1.15;;;10.20;99.90;;;;;;5007976;28;20038;-70
2022/12/29 04:55:33;;;;;;;1.25;0.93;;;10.10;99.90;;;;;;5018110;28;20038;-70
2022/12/29 04:57:58;;;;;;;;;;;10.10;99.90;;;;;;5026926;28;20132;-70
2022/12/29 05:00:24;;;;;;;3.30;1.05;;;10.00;99.90;;;;;;5012967;28;20032;-70
2022/12/29 05:02:50;;;;;;;1.55;1.00;;;10.00;99.90;;;;;;5007773;28;20375;-70
2022/12/29 05:05:16;;;;;;;1.20;0.90;;;9.90;99.90;;;;;;4991251;28;20042;-70
2022/12/29 05:07:42;;;;;;;2.42;1.10;;;10.00;99.90;;;;;;5020107;28;20049;-70
2022/12/29 05:10:08;;;;;;;1.30;1.05;;;9.90;99.90;;;;;;5022887;28;20038;-70
2022/12/29 05:12:35;;;;;;;1.35;1.00;;;9.90;99.90;;;;;;5014901;28;20041;-70
2022/12/29 05:15:02;;;;;;;2.70;1.02;;;9.90;99.90;;;;;;5022597;28;20478;-70
2022/12/29 05:17:28;;;;;;;1.38;0.88;;;9.90;99.90;;;;;;5027600;28;20045;-70
2022/12/29 05:19:54;;;;;;;3.25;1.17;;;10.00;99.90;;;;;;5027721;28;20068;-70
2022/12/29 05:22:20;;;;;;;3.10;1.30;;;10.00;99.90;;;;;;5027716;28;20514;-70
2022/12/29 05:24:45;;;;;;;3.38;1.40;;;10.00;99.90;;;;;;5027655;28;20080;-70
2022/12/29 05:27:11;;;;;;;1.58;1.10;;;9.90;99.90;;;;;;5025857;28;20037;-70
2022/12/29 05:29:37;;;;;;;2.13;1.20;;;10.00;99.90;;;;;;5020103;28;20071;-70
2022/12/29 05:32:03;;;;;;;2.83;1.23;;;10.00;99.90;;;;;;5006961;28;20071;-70
2022/12/29 05:34:28;;;;;;;1.20;1.10;;;10.00;99.90;;;;;;5007336;28;20073;-70
2022/12/29 05:36:54;;;;;;;2.78;1.23;;;9.90;99.90;;;;;;5007893;28;20049;-70
2022/12/29 05:39:20;;;;;;;1.73;1.20;;;10.00;99.90;;;;;;5018056;28;20124;-70
2022/12/29 05:41:45;;;;;;;4.35;1.10;;;9.90;99.90;;;;;;5010016;28;20033;-70
2022/12/29 05:44:12;;;;;;;1.35;0.88;;;9.90;99.90;;;;;;5021192;28;20493;-70
2022/12/29 05:46:37;;;;;;;3.25;1.00;;;9.90;99.90;;;;;;5008634;28;20095;-70
2022/12/29 05:49:03;;;;;;;3.15;1.20;;;9.90;99.90;;;;;;4991329;28;20045;-69
2022/12/29 05:51:29;;;;;;;4.03;1.20;;;9.90;99.90;;;;;;5026177;28;20046;-69
2022/12/29 05:53:55;;;;;;;2.42;1.20;;;10.00;99.90;;;;;;5022790;27;20054;-72
2022/12/29 05:56:20;;;;;;;2.63;1.20;;;10.00;99.90;;;;;;5019100;28;20136;-69
2022/12/29 05:58:46;;;;;;;4.85;1.27;;;10.00;99.90;;;;;;5027039;28;20090;-70
2022/12/29 06:01:12;;;;;;;6.15;1.42;;;9.90;99.90;;;;;;5008013;28;20510;-70
2022/12/29 06:03:37;;;;;;;5.50;1.10;;;9.90;99.90;;;;;;5008839;28;20042;-69
2022/12/29 06:06:03;;;;;;;2.08;1.40;;;9.90;99.90;;;;;;5026389;28;20460;-70
2022/12/29 06:08:29;;;;;;;1.85;1.20;;;9.90;99.90;;;;;;5027370;28;20053;-70
2022/12/29 06:10:54;;;;;;;1.50;0.90;;;9.80;99.90;;;;;;5020678;28;20076;-71
2022/12/29 06:13:20;;;;;;;4.15;1.02;;;9.90;99.90;;;;;;5025914;28;20045;-70
2022/12/29 06:15:48;;;;;;;2.17;1.10;;;9.90;99.90;;;;;;5023361;28;20053;-70
2022/12/29 06:18:15;;;;;;;5.38;1.30;;;9.90;99.90;;;;;;5026408;28;20265;-70
2022/12/29 06:20:40;;;;;;;3.95;1.08;;;9.90;99.90;;;;;;5025003;28;20041;-70
2022/12/29 06:23:06;;;;;;;4.25;0.80;;;9.90;99.90;;;;;;5008554;28;20041;-69
2022/12/29 06:25:33;;;;;;;1.73;0.88;;;9.90;99.90;;;;;;5026626;28;20053;-70
2022/12/29 06:27:59;;;;;;;4.03;0.90;;;9.90;99.90;;;;;;5023118;28;20391;-70
2022/12/29 06:30:25;;;;;;;3.53;1.30;;;9.80;99.90;;;;;;4989676;28;20049;-69
2022/12/29 06:32:51;;;;;;;2.38;0.95;;;9.80;99.90;;;;;;5007094;28;20038;-69
2022/12/29 06:35:17;;;;;;;5.53;1.45;;;9.80;99.90;;;;;;5022246;28;20662;-70
2022/12/29 06:37:43;;;;;;;6.53;1.55;;;9.80;99.90;;;;;;5012086;28;20046;-70
2022/12/29 06:40:09;;;;;;;;;;;9.80;99.90;;;;;;5010735;28;20053;-70
2022/12/29 06:42:35;;;;;;;5.25;1.20;;;9.80;99.90;;;;;;5010443;28;19928;-70
2022/12/29 06:45:01;;;;;;;4.07;1.30;;;9.80;99.90;;;;;;5016230;28;20065;-71
2022/12/29 06:47:26;;;;;;;3.38;1.30;;;9.80;99.90;;;;;;5025741;28;20050;-70
2022/12/29 06:49:52;;;;;;;4.13;0.98;;;9.80;99.90;;;;;;5010813;28;20060;-69
2022/12/29 06:52:18;;;;;;;6.53;1.80;;;9.70;99.90;;;;;;5025084;28;20177;-70
2022/12/29 06:54:44;;;;;;;5.88;1.65;;;9.70;99.90;;;;;;4993410;28;20046;-69
2022/12/29 06:57:09;;;;;;;4.40;1.42;;;9.70;99.90;;;;;;5016192;28;20037;-70
2022/12/29 06:59:35;;;;;;;6.32;1.25;;;9.70;99.90;;;;;;5030502;28;20057;-72
2022/12/29 07:02:01;;;;;;;7.47;1.23;;;9.60;99.90;;;;;;5023076;28;20045;-73
2022/12/29 07:04:28;;;;;;;6.55;1.55;;;9.60;99.90;;;;;;5020995;28;20053;-70
2022/12/29 07:06:54;;;;;;;6.22;1.30;;;9.60;99.90;;;;;;5022563;28;20510;-71
2022/12/29 07:09:19;;;;;;;7.47;1.50;;;9.60;99.90;;;;;;5025981;28;20033;-71
2022/12/29 07:11:45;;;;;;;3.85;1.08;;;9.60;99.90;;;;;;5029289;28;20076;-71
2022/12/29 07:14:11;;;;;;;6.05;1.38;;;9.60;99.90;;;;;;5029743;28;20095;-71
2022/12/29 07:16:37;;;;;;;3.60;1.02;;;9.60;99.90;;;;;;5029225;28;20541;-71
2022/12/29 07:19:03;;;;;;;7.97;1.35;;;9.50;99.90;;;;;;5029857;28;20076;-72
2022/12/29 07:21:29;;;;;;;8.15;1.48;;;9.50;99.90;;;;;;5019300;28;20125;-71
2022/12/29 07:23:54;;;;;;;4.07;1.20;;;9.50;99.90;;;;;;5010028;28;20474;-73
2022/12/29 07:26:20;;;;;;;4.88;1.20;;;9.50;99.90;;;;;;5009680;28;20111;-72
2022/12/29 07:28:46;;;;;;;6.50;1.33;;;9.40;99.90;;;;;;5012132;28;20034;-71
2022/12/29 07:31:20;;;;;;;8.90;1.52;;;9.40;99.90;;;;;;4991586;28;20038;-71
2022/12/29 07:33:47;;;;;;;7.13;1.40;;;9.50;99.90;;;;;;5016424;28;20120;-71
2022/12/29 07:36:14;;;;;;;4.50;1.55;;;9.40;99.90;;;;;;5028952;28;20067;-71
2022/12/29 07:38:40;;;;;;;7.57;1.48;;;9.40;99.90;;;;;;5029950;28;20041;-71
2022/12/29 07:41:06;;;;;;;6.30;1.30;;;9.40;99.90;;;;;;5029631;28;20154;-72
2022/12/29 07:43:32;;;;;;;4.82;1.25;;;9.50;99.90;;;;;;5016067;28;20045;-70
2022/12/29 07:45:57;;;;;;;10.20;1.40;;;9.40;99.90;;;;;;5009769;28;20042;-70
2022/12/29 07:48:23;;;;;;;5.57;1.27;;;9.50;99.90;;;;;;5008905;28;20077;-70
2022/12/29 07:50:49;;;;;;;5.22;1.48;;;9.50;99.90;;;;;;5009816;28;20050;-73
2022/12/29 07:53:15;;;;;;;4.13;1.17;;;9.50;99.90;;;;;;5011143;28;20478;-71
2022/12/29 07:55:41;;;;;;;6.03;1.85;;;9.50;99.90;;;;;;5026183;28;20054;-72
2022/12/29 07:58:06;;;;;;;7.53;1.42;;;9.50;99.90;;;;;;5028390;28;20042;-71
2022/12/29 08:00:32;;;;;;;4.13;1.10;;;9.50;99.90;;;;;;5027087;28;20641;-70
2022/12/29 08:02:58;;;;;;;8.30;1.50;;;9.50;99.90;;;;;;5013167;28;20503;-70
2022/12/29 08:05:24;;;;;;;4.47;1.27;;;9.40;99.90;;;;;;5011528;28;20041;-70
2022/12/29 08:07:49;;;;;;;6.43;1.77;;;9.50;99.90;;;;;;5028537;28;20144;-70
2022/12/29 08:10:15;;;;;;;8.68;1.38;;;9.40;99.90;;;;;;5010075;28;20038;-70
2022/12/29 08:12:42;;;;;;;5.80;1.83;;;9.40;99.90;;;;;;5024698;28;20395;-70
2022/12/29 08:15:09;;;;;;;4.50;1.80;;;9.50;99.90;;;;;;5009042;28;20049;-71
2022/12/29 08:17:35;;;;;;;9.90;1.60;;;9.50;99.90;;;;;;5009142;28;20041;-70
2022/12/29 08:20:01;;;;;;;7.22;1.33;;;9.40;99.90;;;;;;5009487;28;20050;-70
2022/12/29 08:22:29;;;;;;;3.97;1.45;;;9.50;99.90;;;;;;5008367;28;20038;-70
2022/12/29 08:24:55;;;;;;;2.40;1.52;;;9.40;99.90;;;;;;5019934;28;20041;-70
2022/12/29 08:27:21;;;;;;;5.22;1.30;;;9.40;99.90;;;;;;5008222;28;20498;-70
2022/12/29 08:29:47;;;;;;;5.70;1.30;;;9.30;99.90;;;;;;5009471;28;20049;-70
2022/12/29 08:32:13;;;;;;;12.18;2.20;;;9.40;99.90;;;;;;5012317;28;20054;-70
2022/12/29 08:34:38;;;;;;;4.30;1.50;;;9.40;99.90;;;;;;4991819;28;20151;-70
2022/12/29 08:37:04;;;;;;;10.48;1.45;;;9.30;99.90;;;;;;5008936;28;20044;-70
2022/12/29 08:39:30;;;;;;;4.32;1.23;;;9.30;99.90;;;;;;5008541;28;20045;-70
2022/12/29 08:41:56;;;;;;;5.35;0.82;;;9.40;99.90;;;;;;5008648;28;20566;-70
2022/12/29 08:44:21;;;;;;;2.53;0.90;;;9.40;99.90;;;;;;5013212;28;20048;-70
2022/12/29 08:46:47;;;;;;;5.70;1.10;;;9.40;99.90;;;;;;5016447;28;20034;-70
2022/12/29 08:49:13;;;;;;;3.60;1.35;;;9.40;99.90;;;;;;5010798;28;20042;-72
2022/12/29 08:51:39;;;;;;;6.88;1.58;;;9.40;99.90;;;;;;5025562;28;20045;-75
2022/12/29 08:54:05;;;;;;;;;;;9.40;99.90;;;;;;5028418;28;20055;-69
2022/12/29 08:56:31;;;;;;;4.18;1.40;;;9.50;99.90;;;;;;5027945;28;19933;-70
2022/12/29 08:58:57;;;;;;;3.75;1.25;;;9.50;99.90;;;;;;5027310;28;20041;-70
2022/12/29 09:01:23;;;;;;;4.22;1.27;;;9.50;99.90;;;;;;5027015;28;20098;-70
2022/12/29 09:03:49;;;;;;;6.75;1.20;;;9.50;99.90;;;;;;5027988;28;20053;-74
2022/12/29 09:06:16;;;;;;;3.10;1.10;;;9.50;99.90;;;;;;5014665;28;20050;-71
2022/12/29 09:08:43;;;;;;;6.15;1.15;;;9.50;99.90;;;;;;5054377;27;20137;-70
2022/12/29 09:11:10;;;;;;;;;;;9.50;99.90;;;;;;5020823;28;20053;-70
2022/12/29 09:13:35;;;;;;;3.53;0.80;;;9.50;99.90;;;;;;5013311;28;20370;-69
2022/12/29 09:16:02;;;;;;;6.10;1.55;;;9.50;99.90;;;;;;5026094;27;20049;-71
2022/12/29 09:18:27;;;;;;;;;;;9.60;99.90;;;;;;5024988;28;20486;-70
2022/12/29 09:21:01;;;;;;;5.75;1.20;;;9.60;99.90;;;;;;5023904;28;20012;-70
2022/12/29 09:23:27;;;;;;;5.75;1.30;;;9.60;99.90;;;;;;5018414;28;20048;-70
2022/12/29 09:25:54;;;;;;;6.60;1.00;;;9.60;99.90;;;;;;4995816;28;20037;-70
2022/12/29 09:28:20;;;;;;;7.28;1.45;;;9.60;99.90;;;;;;5018349;28;20050;-68
2022/12/29 09:30:46;;;;;;;5.38;1.88;;;9.50;99.90;;;;;;5009814;28;20082;-67
2022/12/29 09:33:11;;;;;;;8.55;1.17;;;9.40;99.90;;;;;;5010963;28;20122;-67
2022/12/29 09:35:41;;;;;;;6.03;1.40;;;9.40;99.90;;;;;;5022304;28;20045;-67
2022/12/29 09:38:06;;;;;;;4.18;1.45;;;9.20;99.90;;;;;;5016528;28;20079;-67
2022/12/29 09:40:33;;;;;;;3.47;1.52;;;9.10;99.90;;;;;;5021185;28;20049;-67
2022/12/29 09:43:02;;;;;;;5.53;1.60;;;9.10;99.90;;;;;;5023239;28;20050;-67
2022/12/29 09:45:31;;;;;;;5.53;1.35;;;9.10;99.90;;;;;;5025369;28;20153;-66
2022/12/29 09:47:57;;;;;;;7.10;1.55;;;9.10;99.90;;;;;;5002477;28;20038;-69
2022/12/29 09:50:29;;;;;;;3.65;1.00;;;9.10;99.90;;;;;;5014256;28;20040;-69
2022/12/29 09:53:33;;;;;;;7.25;1.77;;;9.10;99.90;;;;;;5023320;28;20497;-69
2022/12/29 09:56:01;;;;;;;7.03;1.70;;;9.10;99.90;;;;;;5022796;28;20049;-70
2022/12/29 09:58:50;;;;;;;5.53;1.83;;;9.20;99.90;;;;;;5023529;28;20037;-69
2022/12/29 10:02:09;;;;;;;6.63;1.63;;;9.20;99.90;;;;;;5023925;28;20045;-70
2022/12/29 10:04:35;;;;;;;8.57;1.80;;;9.30;99.90;;;;;;5044026;28;20406;-69
2022/12/29 10:07:04;;;;;;;;;;;9.30;99.90;;;;;;5025104;28;20053;-70
2022/12/29 10:09:33;;;;;;;5.03;1.48;;;9.30;99.90;;;;;;5009404;28;19922;-69
2022/12/29 10:12:26;;;;;;;6.38;1.30;;;9.40;99.90;;;;;;5012611;28;20046;-69
2022/12/29 10:15:02;;;;;;;8.85;1.90;;;9.40;99.90;;;;;;5010238;28;20073;-69
2022/12/29 10:17:43;;;;;;;9.40;1.35;;;9.50;99.90;;;;;;5000189;28;20034;-69
2022/12/29 10:20:22;;;;;;;11.15;1.98;;;9.60;99.90;;;;;;5023855;28;20041;-69
2022/12/29 10:22:53;;;;;;;6.13;1.42;;;9.60;99.90;;;;;;5004424;28;20053;-70
2022/12/29 10:25:24;;;;;;;9.27;1.30;;;9.60;99.90;;;;;;5022450;28;20072;-70
2022/12/29 10:27:51;;;;;;;8.68;1.52;;;9.60;99.90;;;;;;5019531;28;20531;-70
2022/12/29 10:30:18;;;;;;;7.07;1.98;;;9.60;99.90;;;;;;5011151;28;20034;-69
2022/12/29 10:33:11;;;;;;;8.15;1.83;;;9.70;99.90;;;;;;4998017;28;20417;-70
2022/12/29 10:35:40;;;;;;;7.30;1.50;;;9.60;99.90;;;;;;5017312;28;20071;-69
2022/12/29 10:38:51;;;;;;;7.13;1.80;;;9.60;99.90;;;;;;5012236;28;20034;-69
2022/12/29 10:41:33;;;;;;;9.23;1.40;;;9.60;99.90;;;;;;4996422;28;20398;-69
2022/12/29 10:44:00;;;;;;;5.53;1.30;;;9.60;99.90;;;;;;5011716;28;20080;-69
2022/12/29 10:46:34;;;;;;;5.35;1.48;;;9.60;99.90;;;;;;5009529;28;20735;-71
2022/12/29 10:49:01;;;;;;;5.82;1.50;;;9.40;99.90;;;;;;5006282;28;20463;-70
2022/12/29 10:51:38;;;;;;;5.65;1.30;;;9.30;99.90;;;;;;5005161;28;20439;-70
2022/12/29 10:54:06;;;;;;;6.70;1.40;;;9.20;99.90;;;;;;5007996;28;20042;-71
2022/12/29 10:56:52;;;;;;;6.60;1.40;;;9.10;99.90;;;;;;5024719;28;20404;-71
2022/12/29 10:59:30;;;;;;;6.78;1.95;;;9.10;99.90;;;;;;5025420;28;20045;-70
2022/12/29 11:02:04;;;;;;;4.00;1.40;;;9.10;99.90;;;;;;5017081;28;20474;-70
2022/12/29 11:04:35;;;;;;;7.97;1.55;;;9.20;99.90;;;;;;5009304;28;20034;-71
2022/12/29 11:07:02;;;;;;;3.75;1.45;;;9.10;99.90;;;;;;5010498;28;20038;-70
2022/12/29 11:09:31;;;;;;;4.72;1.73;;;9.10;99.90;;;;;;5018000;28;20095;-72
2022/12/29 11:11:56;;;;;;;8.90;2.45;;;9.10;99.90;;;;;;5019092;28;20102;-71
2022/12/29 11:14:31;;;;;;;5.00;1.10;;;9.00;99.90;;;;;;5024191;28;20057;-71
2022/12/29 11:17:02;;;;;;;5.72;1.40;;;9.00;99.90;;;;;;5022332;28;20033;-71
2022/12/29 11:19:30;;;;;;;5.30;1.48;;;9.00;99.90;;;;;;5023980;28;20113;-72
2022/12/29 11:22:24;;;;;;;6.25;1.60;;;8.90;99.90;;;;;;5022014;28;20470;-73
2022/12/29 11:24:52;;;;;;;7.70;1.83;;;8.90;99.90;;;;;;5022930;28;20090;-72
2022/12/29 11:27:26;;;;;;;13.38;2.40;;;8.90;99.90;;;;;;5026967;28;20074;-72
2022/12/29 11:29:53;;;;;;;6.53;1.60;;;8.90;99.90;;;;;;5024702;28;20037;-72
2022/12/29 11:32:20;;;;;;;6.32;1.63;;;8.90;99.90;;;;;;5019618;28;20110;-71
2022/12/29 11:34:46;;;;;;;3.72;1.38;;;8.90;99.90;;;;;;5024925;28;20052;-71
2022/12/29 11:37:34;;;;;;;;;;;8.90;99.90;;;;;;5016387;28;20596;-71
2022/12/29 11:40:04;;;;;;;2.77;1.13;;;8.90;99.90;;;;;;5026748;28;19988;-71
2022/12/29 11:43:02;;;;;;;10.88;3.17;;;8.90;99.90;;;;;;5024438;28;20050;-71
2022/12/29 11:45:32;;;;;;;7.35;2.15;;;8.90;99.90;;;;;;5019395;28;20049;-71
2022/12/29 11:48:19;;;;;;;5.63;1.88;;;8.90;99.90;;;;;;5016179;28;20042;-71
2022/12/29 11:50:59;;;;;;;1.58;1.25;;;8.90;99.90;;;;;;5016242;28;20571;-75
2022/12/29 11:53:30;;;;;;;5.93;1.73;;;8.80;99.90;;;;;;5013418;28;20112;-73
2022/12/29 11:56:05;;;;;;;11.13;1.70;;;8.70;99.90;;;;;;5011340;28;20045;-73
2022/12/29 11:58:34;;;;;;;5.43;1.60;;;8.70;99.90;;;;;;5010500;28;20079;-72
2022/12/29 12:01:34;;;;;;;7.45;1.35;;;8.80;99.90;;;;;;5013395;28;20061;-72
2022/12/29 12:04:05;;;;;;;8.73;2.10;;;8.90;99.90;;;;;;5021089;28;20049;-71
2022/12/29 12:06:36;;;;;;;6.65;1.90;;;9.00;99.90;;;;;;5023520;28;20099;-72
2022/12/29 12:09:16;;;;;;;7.15;1.50;;;9.10;99.90;;;;;;5016859;28;20042;-72
2022/12/29 12:11:45;;;;;;;6.68;1.30;;;9.30;99.90;;;;;;5011577;28;20835;-76
2022/12/29 12:15:03;;;;;;;11.43;1.80;;;9.50;99.90;;;;;;5023139;28;20118;-72
2022/12/29 12:17:55;;;;;;;7.80;1.80;;;9.60;99.90;;;;;;5015297;28;20075;-71
2022/12/29 12:20:44;;;;;;;8.10;2.05;;;9.80;99.90;;;;;;5016063;28;20474;-71
2022/12/29 12:23:25;;;;;;;7.22;1.92;;;10.10;99.90;;;;;;5007428;28;20066;-70
2022/12/29 12:26:19;;;;;;;9.43;1.63;;;10.20;99.90;;;;;;5013774;28;20064;-70
2022/12/29 12:29:20;;;;;;;4.18;1.50;;;10.90;99.90;;;;;;5007745;28;20617;-71
2022/12/29 12:32:09;;;;;;;4.05;1.88;;;11.30;99.90;;;;;;5006660;28;20140;-71
2022/12/29 12:34:40;;;;;;;10.65;1.92;;;11.00;99.90;;;;;;5006085;28;20500;-72
2022/12/29 12:37:27;;;;;;;4.43;1.33;;;10.60;99.90;;;;;;5006420;28;20494;-71
2022/12/29 12:39:59;;;;;;;6.80;1.60;;;10.20;99.90;;;;;;5007388;28;20098;-71
2022/12/29 12:42:40;;;;;;;14.40;2.25;;;10.00;99.90;;;;;;5006676;28;20455;-70
2022/12/29 12:45:33;;;;;;;7.00;1.60;;;9.90;99.90;;;;;;5007559;28;20069;-71
2022/12/29 12:48:18;;;;;;;11.00;2.05;;;10.00;99.90;;;;;;4988409;28;20121;-70
2022/12/29 12:50:47;;;;;;;12.02;2.10;;;10.00;99.90;;;;;;5006391;28;20471;-71
2022/12/29 12:53:34;;;;;;;12.95;1.90;;;10.00;99.90;;;;;;5006847;28;20054;-72
2022/12/29 12:56:41;;;;;;;14.10;2.60;;;10.10;99.90;;;;;;5008891;28;20050;-70
2022/12/29 12:59:12;;;;;;;13.70;2.00;;;10.30;99.90;;;;;;5008886;28;20049;-70
2022/12/29 13:02:22;;;;;;;8.02;1.60;;;10.20;99.90;;;;;;4990853;28;20133;-71
2022/12/29 13:05:00;;;;;;;8.18;1.60;;;10.00;99.90;;;;;;5023184;28;20058;-69
2022/12/29 13:07:38;;;;;;;7.38;1.60;;;9.80;99.90;;;;;;5006307;28;20041;-69
2022/12/29 13:10:29;;;;;;;6.43;2.00;;;9.60;99.90;;;;;;5008368;28;20041;-67
2022/12/29 13:13:21;;;;;;;11.45;2.05;;;9.50;99.90;;;;;;5005454;28;20057;-69
2022/12/29 13:16:15;;;;;;;10.95;2.08;;;9.40;99.90;;;;;;5031668;28;20092;-68
2022/12/29 13:19:01;;;;;;;11.30;2.03;;;9.40;99.90;;;;;;5055128;28;20044;-70
2022/12/29 13:21:50;;;;;;;6.70;1.80;;;9.30;99.90;;;;;;5006098;28;20042;-69
2022/12/29 13:24:30;;;;;;;12.15;1.77;;;9.30;99.90;;;;;;5006404;28;20065;-70
2022/12/29 13:27:22;;;;;;;11.93;1.80;;;9.20;99.90;;;;;;4989527;28;20040;-70
2022/12/29 13:30:04;;;;;;;12.10;1.92;;;9.20;99.90;;;;;;5010367;28;20054;-70
2022/12/29 13:32:41;;;;;;;3.65;1.70;;;9.20;99.90;;;;;;4994770;28;20677;-70
2022/12/29 13:35:28;;;;;;;7.70;2.33;;;9.30;99.90;;;;;;5016627;28;20041;-69
2022/12/29 13:37:59;;;;;;;10.15;2.25;;;9.50;99.90;;;;;;5018079;28;20041;-70
2022/12/29 13:40:28;;;;;;;10.90;1.85;;;9.60;99.90;;;;;;5011209;28;20038;-69
2022/12/29 13:42:56;;;;;;;5.97;1.85;;;9.60;99.90;;;;;;5008581;28;20045;-69
2022/12/29 13:45:26;;;;;;;9.30;1.73;;;9.60;99.90;;;;;;4994407;28;20474;-69
2022/12/29 13:48:13;;;;;;;8.32;1.60;;;9.50;99.90;;;;;;5011284;28;20113;-69
2022/12/29 13:50:40;;;;;;;7.50;1.92;;;9.40;99.90;;;;;;5007106;28;20041;-70
2022/12/29 13:53:27;;;;;;;10.48;1.65;;;9.20;99.90;;;;;;5009946;28;20487;-69